Time;durP1;ratioP1;P1;durP2;ratioP2;P2;SDS_P1;SDS_P2;PMS_P1;PMS_P2;Temp;Humidity;BMP_temperature;BMP_pressure;BME280_temperature;BME280_humidity;BME280_pressure;Samples;Min_cycle;Max_cycle;Signal;HPM_P1;HPM_P2
2022/07/27 00:00:07;;;;;;;;;;;;;;;;;;351481;28;963;-65
2022/07/27 00:00:18;;;;;;;;;;;;;;;;;;351530;28;948;-65
2022/07/27 00:00:28;;;;;;;;;;;;;;;;;;351460;28;904;-65
2022/07/27 00:00:38;;;;;;;;;;;;;;;;;;351493;28;942;-65
2022/07/27 00:00:48;;;;;;;;;;;;;;;;;;351498;28;913;-65
2022/07/27 00:00:59;;;;;;;;;;;;;;;;;;351521;28;1000;-65
2022/07/27 00:01:10;;;;;;;;;;;;;;;;;;351406;28;916;-65
2022/07/27 00:01:20;;;;;;;;;;;;;;;;;;351509;28;936;-65
2022/07/27 00:01:31;;;;;;;;;;;;;;;;;;351510;28;920;-65
2022/07/27 00:01:42;;;;;;;;;;;;;;;;;;351511;28;991;-65
2022/07/27 00:01:52;;;;;;;;;;;;;;;;;;351463;28;916;-65
2022/07/27 00:02:02;;;;;;;;;;;;;;;;;;351535;28;798;-65
2022/07/27 00:02:13;;;;;;;;;;;;;;;;;;351490;28;908;-65
2022/07/27 00:02:23;;;;;;;;;;;;;;;;;;351475;28;947;-65
2022/07/27 00:02:33;;;;;;;;;;;;;;;;;;351478;28;1037;-65
2022/07/27 00:02:43;;;;;;;;;;;;;;;;;;351546;28;1003;-65
2022/07/27 00:02:54;;;;;;;;;;;;;;;;;;351484;28;920;-65
2022/07/27 00:03:04;;;;;;;;;;;;;;;;;;351497;28;971;-65
2022/07/27 00:03:14;;;;;;;;;;;;;;;;;;351427;28;912;-65
2022/07/27 00:03:25;;;;;;;;;;;;;;;;;;351532;28;991;-65
2022/07/27 00:03:35;;;;;;;;;;;;;;;;;;351485;28;979;-65
2022/07/27 00:03:46;;;;;;;;;;;;;;;;;;351590;28;833;-65
2022/07/27 00:03:56;;;;;;;;;;;;;;;;;;351489;28;936;-65
2022/07/27 00:04:06;;;;;;;;;;;;;;;;;;351484;28;1773;-65
2022/07/27 00:04:19;;;;;;;;;;;;;;;;;;351506;28;933;-65
2022/07/27 00:04:30;;;;;;;;;;;;;;;;;;351490;28;928;-65
2022/07/27 00:04:40;;;;;;;;;;;;;;;;;;351495;28;842;-65
2022/07/27 00:04:50;;;;;;;;;;;;;;;;;;351502;28;980;-65
2022/07/27 00:05:00;;;;;;;;;;;;;;;;;;351481;28;839;-66
2022/07/27 00:05:10;;;;;;;;;;;;;;;;;;351472;28;1003;-65
2022/07/27 00:05:21;;;;;;;;;;;;;;;;;;351430;28;1015;-66
2022/07/27 00:05:31;;;;;;;;;;;;;;;;;;351499;28;912;-65
2022/07/27 00:05:41;;;;;;;;;;;;;;;;;;351549;28;821;-65
2022/07/27 00:05:52;;;;;;;;;;;;;;;;;;351503;28;960;-65
2022/07/27 00:06:02;;;;;;;;;;;;;;;;;;350507;28;1402;-65
2022/07/27 00:06:12;;;;;;;;;;;;;;;;;;351479;28;778;-65
2022/07/27 00:06:22;;;;;;;;;;;;;;;;;;351540;28;857;-65
2022/07/27 00:06:33;;;;;;;;;;;;;;;;;;351449;28;995;-65
2022/07/27 00:06:43;;;;;;;;;;;;;;;;;;351574;28;790;-65
2022/07/27 00:06:53;;;;;;;;;;;;;;;;;;351498;28;707;-65
2022/07/27 00:07:03;;;;;;;;;;;;;;;;;;351527;27;832;-65
2022/07/27 00:07:14;;;;;;;;;;;;;;;;;;351453;28;921;-65
2022/07/27 00:07:24;;;;;;;;;;;;;;;;;;351155;28;1344;-65
2022/07/27 00:07:34;;;;;;;;;;;;;;;;;;351403;28;1515;-65
2022/07/27 00:07:45;;;;;;;;;;;;;;;;;;351494;28;952;-65
2022/07/27 00:07:55;;;;;;;;;;;;;;;;;;351455;28;928;-65
2022/07/27 00:08:05;;;;;;;;;;;;;;;;;;351476;28;994;-65
2022/07/27 00:08:18;;;;;;;;;;;;;;;;;;351454;28;952;-65
2022/07/27 00:08:29;;;;;;;;;;;;;;;;;;351474;28;936;-65
2022/07/27 00:08:39;;;;;;;;;;;;;;;;;;351449;27;921;-65
2022/07/27 00:08:49;;;;;;;;;;;;;;;;;;351439;28;1087;-65
2022/07/27 00:09:00;;;;;;;;;;;;;;;;;;351498;28;920;-65
2022/07/27 00:09:10;;;;;;;;;;;;;;;;;;351488;28;944;-65
2022/07/27 00:09:21;;;;;;;;;;;;;;;;;;351488;28;874;-65
2022/07/27 00:09:31;;;;;;;;;;;;;;;;;;351436;28;916;-65
2022/07/27 00:09:41;;;;;;;;;;;;;;;;;;351513;28;841;-65
2022/07/27 00:09:51;;;;;;;;;;;;;;;;;;351483;28;975;-65
2022/07/27 00:10:02;;;;;;;;;;;;;;;;;;351489;28;794;-65
2022/07/27 00:10:13;;;;;;;;;;;;;;;;;;351435;28;1297;-66
2022/07/27 00:10:24;;;;;;;;;;;;;;;;;;351408;28;936;-65
2022/07/27 00:10:35;;;;;;;;;;;;;;;;;;351497;28;797;-65
2022/07/27 00:10:45;;;;;;;;;;;;;;;;;;351409;28;1014;-65
2022/07/27 00:10:56;;;;;;;;;;;;;;;;;;351415;28;932;-65
2022/07/27 00:11:07;;;;;;;;;;;;;;;;;;351480;28;833;-65
2022/07/27 00:11:17;;;;;;;;;;;;;;;;;;351468;28;951;-65
2022/07/27 00:11:27;;;;;;;;;;;;;;;;;;351433;28;960;-65
2022/07/27 00:11:37;;;;;;;;;;;;;;;;;;351412;28;916;-65
2022/07/27 00:11:48;;;;;;;;;;;;;;;;;;351534;28;838;-65
2022/07/27 00:11:58;;;;;;;;;;;;;;;;;;351413;28;1905;-65
2022/07/27 00:12:08;;;;;;;;;;;;;;;;;;351514;28;797;-65
2022/07/27 00:12:18;;;;;;;;;;;;;;;;;;351497;28;790;-65
2022/07/27 00:12:29;;;;;;;;;;;;;;;;;;351431;28;905;-65
2022/07/27 00:12:39;;;;;;;;;;;;;;;;;;351499;28;913;-65
2022/07/27 00:12:49;;;;;;;;;;;;;;;;;;351505;28;912;-65
2022/07/27 00:13:00;;;;;;;;;;;;;;;;;;351480;28;952;-65
2022/07/27 00:13:10;;;;;;;;;;;;;;;;;;351476;28;980;-65
2022/07/27 00:13:20;;;;;;;;;;;;;;;;;;351527;28;952;-65
2022/07/27 00:13:30;;;;;;;;;;;;;;;;;;351390;28;841;-65
2022/07/27 00:13:41;;;;;;;;;;;;;;;;;;351503;28;972;-65
2022/07/27 00:13:51;;;;;;;;;;;;;;;;;;351445;28;1067;-65
2022/07/27 00:14:01;;;;;;;;;;;;;;;;;;351480;28;885;-65
2022/07/27 00:14:12;;;;;;;;;;;;;;;;;;350262;28;1586;-65
2022/07/27 00:14:22;;;;;;;;;;;;;;;;;;351987;28;1441;-65
2022/07/27 00:14:32;;;;;;;;;;;;;;;;;;352879;28;852;-65
2022/07/27 00:14:42;;;;;;;;;;;;;;;;;;352934;28;790;-65
2022/07/27 00:14:52;;;;;;;;;;;;;;;;;;352931;28;893;-65
2022/07/27 00:15:04;;;;;;;;;;;;;;;;;;352849;28;916;-65
2022/07/27 00:15:14;;;;;;;;;;;;;;;;;;352957;28;829;-65
2022/07/27 00:15:24;;;;;;;;;;;;;;;;;;352862;28;940;-65
2022/07/27 00:15:34;;;;;;;;;;;;;;;;;;352890;27;845;-65
2022/07/27 00:15:45;;;;;;;;;;;;;;;;;;352855;28;1009;-65
2022/07/27 00:15:55;;;;;;;;;;;;;;;;;;352896;28;833;-65
2022/07/27 00:16:05;;;;;;;;;;;;;;;;;;352875;28;1023;-65
2022/07/27 00:16:16;;;;;;;;;;;;;;;;;;352945;28;745;-65
2022/07/27 00:16:26;;;;;;;;;;;;;;;;;;352904;28;841;-65
2022/07/27 00:16:36;;;;;;;;;;;;;;;;;;352867;28;991;-65
2022/07/27 00:16:46;;;;;;;;;;;;;;;;;;352960;28;793;-65
2022/07/27 00:16:57;;;;;;;;;;;;;;;;;;352888;28;964;-65
2022/07/27 00:17:07;;;;;;;;;;;;;;;;;;352853;28;968;-65
2022/07/27 00:17:22;;;;;;;;;;;;;;;;;;352886;28;975;-65
2022/07/27 00:17:32;;;;;;;;;;;;;;;;;;352910;28;952;-65
2022/07/27 00:17:43;;;;;;;;;;;;;;;;;;352925;27;979;-65
2022/07/27 00:17:54;;;;;;;;;;;;;;;;;;352809;28;970;-65
2022/07/27 00:18:04;;;;;;;;;;;;;;;;;;352709;28;944;-65
2022/07/27 00:18:14;;;;;;;;;;;;;;;;;;352553;28;1117;-65
2022/07/27 00:18:24;;;;;;;;;;;;;;;;;;352730;28;790;-65
2022/07/27 00:18:35;;;;;;;;;;;;;;;;;;352749;28;928;-66
2022/07/27 00:18:45;;;;;;;;;;;;;;;;;;352918;28;975;-65
2022/07/27 00:18:55;;;;;;;;;;;;;;;;;;352927;28;690;-65
2022/07/27 00:19:05;;;;;;;;;;;;;;;;;;352914;28;924;-65
2022/07/27 00:19:15;;;;;;;;;;;;;;;;;;352834;28;769;-65
2022/07/27 00:19:26;;;;;;;;;;;;;;;;;;352897;28;864;-65
2022/07/27 00:19:36;;;;;;;;;;;;;;;;;;352862;28;1103;-65
2022/07/27 00:19:46;;;;;;;;;;;;;;;;;;352916;28;892;-65
2022/07/27 00:19:56;;;;;;;;;;;;;;;;;;352805;28;983;-65
2022/07/27 00:20:07;;;;;;;;;;;;;;;;;;352912;28;992;-65
2022/07/27 00:20:17;;;;;;;;;;;;;;;;;;352937;28;1023;-65
2022/07/27 00:20:28;;;;;;;;;;;;;;;;;;352912;28;1006;-65
2022/07/27 00:20:41;;;;;;;;;;;;;;;;;;352846;28;972;-65
2022/07/27 00:20:51;;;;;;;;;;;;;;;;;;352917;28;1006;-65
2022/07/27 00:21:01;;;;;;;;;;;;;;;;;;352952;28;909;-65
2022/07/27 00:21:12;;;;;;;;;;;;;;;;;;352936;27;971;-65
2022/07/27 00:21:23;;;;;;;;;;;;;;;;;;352861;28;991;-65
2022/07/27 00:21:33;;;;;;;;;;;;;;;;;;352882;28;936;-65
2022/07/27 00:21:43;;;;;;;;;;;;;;;;;;352898;28;920;-65
2022/07/27 00:21:53;;;;;;;;;;;;;;;;;;352933;28;995;-65
2022/07/27 00:22:03;;;;;;;;;;;;;;;;;;352822;28;952;-65
2022/07/27 00:22:14;;;;;;;;;;;;;;;;;;352863;28;1157;-65
2022/07/27 00:22:24;;;;;;;;;;;;;;;;;;352944;27;813;-65
2022/07/27 00:22:35;;;;;;;;;;;;;;;;;;352961;28;859;-65
2022/07/27 00:22:45;;;;;;;;;;;;;;;;;;352858;28;979;-65
2022/07/27 00:22:55;;;;;;;;;;;;;;;;;;352956;28;815;-65
2022/07/27 00:23:06;;;;;;;;;;;;;;;;;;352934;28;842;-65
2022/07/27 00:23:16;;;;;;;;;;;;;;;;;;352948;28;786;-65
2022/07/27 00:23:26;;;;;;;;;;;;;;;;;;352872;28;812;-65
2022/07/27 00:23:37;;;;;;;;;;;;;;;;;;352884;28;908;-65
2022/07/27 00:23:47;;;;;;;;;;;;;;;;;;352895;28;912;-65
2022/07/27 00:23:57;;;;;;;;;;;;;;;;;;350180;28;1348;-65
2022/07/27 00:24:07;;;;;;;;;;;;;;;;;;351075;28;1414;-66
2022/07/27 00:24:18;;;;;;;;;;;;;;;;;;351490;28;972;-65
2022/07/27 00:24:28;;;;;;;;;;;;;;;;;;351515;28;944;-65
2022/07/27 00:24:38;;;;;;;;;;;;;;;;;;351411;27;1051;-65
2022/07/27 00:24:49;;;;;;;;;;;;;;;;;;351486;28;904;-65
2022/07/27 00:24:59;;;;;;;;;;;;;;;;;;351467;28;960;-65
2022/07/27 00:25:09;;;;;;;;;;;;;;;;;;351505;28;841;-65
2022/07/27 00:25:19;;;;;;;;;;;;;;;;;;351459;28;909;-65
2022/07/27 00:25:30;;;;;;;;;;;;;;;;;;351446;28;1015;-65
2022/07/27 00:25:40;;;;;;;;;;;;;;;;;;351325;28;2042;-65
2022/07/27 00:25:50;;;;;;;;;;;;;;;;;;350075;28;1448;-65
2022/07/27 00:26:00;;;;;;;;;;;;;;;;;;350803;28;1506;-65
2022/07/27 00:26:11;;;;;;;;;;;;;;;;;;352806;28;975;-65
2022/07/27 00:26:21;;;;;;;;;;;;;;;;;;352910;28;806;-65
2022/07/27 00:26:31;;;;;;;;;;;;;;;;;;352848;28;1111;-65
2022/07/27 00:26:41;;;;;;;;;;;;;;;;;;352898;28;908;-65
2022/07/27 00:26:51;;;;;;;;;;;;;;;;;;352797;28;1364;-65
2022/07/27 00:27:02;;;;;;;;;;;;;;;;;;352864;28;992;-65
2022/07/27 00:27:12;;;;;;;;;;;;;;;;;;352996;28;826;-65
2022/07/27 00:27:22;;;;;;;;;;;;;;;;;;351026;28;1304;-65
2022/07/27 00:27:32;;;;;;;;;;;;;;;;;;350083;28;904;-65
2022/07/27 00:27:43;;;;;;;;;;;;;;;;;;350072;28;941;-65
2022/07/27 00:27:56;;;;;;;;;;;;;;;;;;350072;28;904;-66
2022/07/27 00:28:06;;;;;;;;;;;;;;;;;;350125;28;897;-65
2022/07/27 00:28:16;;;;;;;;;;;;;;;;;;349998;28;877;-65
2022/07/27 00:28:26;;;;;;;;;;;;;;;;;;350078;28;778;-65
2022/07/27 00:28:37;;;;;;;;;;;;;;;;;;350039;28;917;-65
2022/07/27 00:28:47;;;;;;;;;;;;;;;;;;350086;28;857;-65
2022/07/27 00:28:58;;;;;;;;;;;;;;;;;;349895;28;941;-65
2022/07/27 00:29:08;;;;;;;;;;;;;;;;;;350023;28;853;-65
2022/07/27 00:29:18;;;;;;;;;;;;;;;;;;349971;28;1012;-65
2022/07/27 00:29:28;;;;;;;;;;;;;;;;;;350001;28;814;-65
2022/07/27 00:29:39;;;;;;;;;;;;;;;;;;349955;28;833;-65
2022/07/27 00:29:49;;;;;;;;;;;;;;;;;;349979;28;830;-65
2022/07/27 00:29:59;;;;;;;;;;;;;;;;;;349934;28;976;-65
2022/07/27 00:30:09;;;;;;;;;;;;;;;;;;349988;28;956;-65
2022/07/27 00:30:20;;;;;;;;;;;;;;;;;;349853;28;992;-65
2022/07/27 00:30:30;;;;;;;;;;;;;;;;;;349997;28;786;-65
2022/07/27 00:30:40;;;;;;;;;;;;;;;;;;349910;28;1255;-65
2022/07/27 00:30:51;;;;;;;;;;;;;;;;;;349984;28;866;-65
2022/07/27 00:31:01;;;;;;;;;;;;;;;;;;350053;28;917;-65
2022/07/27 00:31:11;;;;;;;;;;;;;;;;;;350110;28;873;-65
2022/07/27 00:31:21;;;;;;;;;;;;;;;;;;350055;28;967;-66
2022/07/27 00:31:32;;;;;;;;;;;;;;;;;;350076;28;979;-65
2022/07/27 00:31:42;;;;;;;;;;;;;;;;;;350098;28;912;-65
2022/07/27 00:31:52;;;;;;;;;;;;;;;;;;350041;28;917;-65
2022/07/27 00:32:03;;;;;;;;;;;;;;;;;;349971;28;1980;-65
2022/07/27 00:32:13;;;;;;;;;;;;;;;;;;350115;28;917;-65
2022/07/27 00:32:23;;;;;;;;;;;;;;;;;;349996;28;948;-65
2022/07/27 00:32:33;;;;;;;;;;;;;;;;;;350060;28;873;-65
2022/07/27 00:32:43;;;;;;;;;;;;;;;;;;350122;28;896;-65
2022/07/27 00:32:54;;;;;;;;;;;;;;;;;;350006;28;940;-65
2022/07/27 00:33:04;;;;;;;;;;;;;;;;;;350099;28;809;-65
2022/07/27 00:33:15;;;;;;;;;;;;;;;;;;350115;28;909;-65
2022/07/27 00:33:25;;;;;;;;;;;;;;;;;;350025;28;893;-65
2022/07/27 00:33:35;;;;;;;;;;;;;;;;;;350121;28;975;-65
2022/07/27 00:33:45;;;;;;;;;;;;;;;;;;350025;28;920;-65
2022/07/27 00:33:55;;;;;;;;;;;;;;;;;;350039;28;941;-65
2022/07/27 00:34:06;;;;;;;;;;;;;;;;;;350066;28;1063;-65
2022/07/27 00:34:16;;;;;;;;;;;;;;;;;;350095;28;932;-65
2022/07/27 00:34:26;;;;;;;;;;;;;;;;;;350054;28;794;-65
2022/07/27 00:34:37;;;;;;;;;;;;;;;;;;350026;28;913;-65
2022/07/27 00:34:47;;;;;;;;;;;;;;;;;;350101;28;821;-65
2022/07/27 00:34:58;;;;;;;;;;;;;;;;;;350014;28;1016;-65
2022/07/27 00:35:08;;;;;;;;;;;;;;;;;;350118;28;956;-65
2022/07/27 00:35:18;;;;;;;;;;;;;;;;;;350080;28;667;-65
2022/07/27 00:35:29;;;;;;;;;;;;;;;;;;350050;28;941;-65
2022/07/27 00:35:39;;;;;;;;;;;;;;;;;;350096;28;995;-65
2022/07/27 00:35:49;;;;;;;;;;;;;;;;;;350015;28;1011;-65
2022/07/27 00:36:01;;;;;;;;;;;;;;;;;;349981;28;1371;-65
2022/07/27 00:36:11;;;;;;;;;;;;;;;;;;350078;28;953;-65
2022/07/27 00:36:21;;;;;;;;;;;;;;;;;;350082;28;984;-65
2022/07/27 00:36:32;;;;;;;;;;;;;;;;;;350021;28;972;-65
2022/07/27 00:36:42;;;;;;;;;;;;;;;;;;350018;28;909;-65
2022/07/27 00:36:52;;;;;;;;;;;;;;;;;;350721;28;1293;-65
2022/07/27 00:37:02;;;;;;;;;;;;;;;;;;351429;28;929;-65
2022/07/27 00:37:13;;;;;;;;;;;;;;;;;;351453;28;971;-65
2022/07/27 00:37:23;;;;;;;;;;;;;;;;;;351486;28;984;-65
2022/07/27 00:37:33;;;;;;;;;;;;;;;;;;351478;28;904;-65
2022/07/27 00:37:43;;;;;;;;;;;;;;;;;;351434;28;908;-66
2022/07/27 00:37:54;;;;;;;;;;;;;;;;;;351468;28;921;-65
2022/07/27 00:38:04;;;;;;;;;;;;;;;;;;351478;28;916;-65
2022/07/27 00:38:15;;;;;;;;;;;;;;;;;;351431;28;1863;-65
2022/07/27 00:38:25;;;;;;;;;;;;;;;;;;351424;28;967;-65
2022/07/27 00:38:35;;;;;;;;;;;;;;;;;;351445;28;980;-65
2022/07/27 00:38:46;;;;;;;;;;;;;;;;;;351205;28;1264;-65
2022/07/27 00:38:56;;;;;;;;;;;;;;;;;;351411;28;1137;-65
2022/07/27 00:39:06;;;;;;;;;;;;;;;;;;351404;28;975;-65
2022/07/27 00:39:16;;;;;;;;;;;;;;;;;;351452;28;913;-65
2022/07/27 00:39:27;;;;;;;;;;;;;;;;;;351450;28;975;-65
2022/07/27 00:39:37;;;;;;;;;;;;;;;;;;351472;28;921;-65
2022/07/27 00:39:47;;;;;;;;;;;;;;;;;;351399;28;901;-65
2022/07/27 00:39:57;;;;;;;;;;;;;;;;;;351435;28;975;-65
2022/07/27 00:40:08;;;;;;;;;;;;;;;;;;351470;28;975;-65
2022/07/27 00:40:18;;;;;;;;;;;;;;;;;;351363;28;1224;-65
2022/07/27 00:40:28;;;;;;;;;;;;;;;;;;351413;28;900;-65
2022/07/27 00:40:38;;;;;;;;;;;;;;;;;;351435;28;948;-65
2022/07/27 00:40:49;;;;;;;;;;;;;;;;;;350309;28;1530;-65
2022/07/27 00:40:59;;;;;;;;;;;;;;;;;;349973;28;976;-65
2022/07/27 00:41:10;;;;;;;;;;;;;;;;;;350018;28;1010;-65
2022/07/27 00:41:20;;;;;;;;;;;;;;;;;;350041;28;1019;-65
2022/07/27 00:41:30;;;;;;;;;;;;;;;;;;350062;28;949;-65
2022/07/27 00:41:40;;;;;;;;;;;;;;;;;;350059;28;993;-65
2022/07/27 00:41:50;;;;;;;;;;;;;;;;;;350067;28;825;-65
2022/07/27 00:42:01;;;;;;;;;;;;;;;;;;350030;28;909;-65
2022/07/27 00:42:11;;;;;;;;;;;;;;;;;;350062;28;983;-65
2022/07/27 00:42:26;;;;;;;;;;;;;;;;;;350088;28;925;-65
2022/07/27 00:42:37;;;;;;;;;;;;;;;;;;350062;28;992;-65
2022/07/27 00:42:47;;;;;;;;;;;;;;;;;;350079;28;1001;-65
2022/07/27 00:42:57;;;;;;;;;;;;;;;;;;350005;28;1011;-65
2022/07/27 00:43:07;;;;;;;;;;;;;;;;;;350080;28;912;-65
2022/07/27 00:43:18;;;;;;;;;;;;;;;;;;350023;28;925;-65
2022/07/27 00:43:28;;;;;;;;;;;;;;;;;;350084;28;948;-65
2022/07/27 00:43:58;;;;;;;;;;;;;;;;;;350038;28;734;-65
2022/07/27 00:44:09;;;;;;;;;;;;;;;;;;350017;28;921;-65
2022/07/27 00:44:29;;;;;;;;;;;;;;;;;;350095;28;1787;-65
2022/07/27 00:44:40;;;;;;;;;;;;;;;;;;350060;28;929;-65
2022/07/27 00:44:50;;;;;;;;;;;;;;;;;;350062;28;897;-65
2022/07/27 00:45:01;;;;;;;;;;;;;;;;;;349963;28;999;-65
2022/07/27 00:45:11;;;;;;;;;;;;;;;;;;350063;28;929;-65
2022/07/27 00:45:21;;;;;;;;;;;;;;;;;;350126;28;782;-65
2022/07/27 00:45:31;;;;;;;;;;;;;;;;;;350034;28;798;-65
2022/07/27 00:45:42;;;;;;;;;;;;;;;;;;350064;28;968;-65
2022/07/27 00:45:52;;;;;;;;;;;;;;;;;;350072;28;837;-65
2022/07/27 00:46:02;;;;;;;;;;;;;;;;;;350060;28;900;-65
2022/07/27 00:46:12;;;;;;;;;;;;;;;;;;350026;28;833;-65
2022/07/27 00:46:24;;;;;;;;;;;;;;;;;;350069;28;913;-65
2022/07/27 00:46:34;;;;;;;;;;;;;;;;;;350045;28;1558;-65
2022/07/27 00:46:44;;;;;;;;;;;;;;;;;;350086;28;984;-65
2022/07/27 00:46:55;;;;;;;;;;;;;;;;;;350012;28;901;-65
2022/07/27 00:47:05;;;;;;;;;;;;;;;;;;349982;28;975;-65
2022/07/27 00:47:15;;;;;;;;;;;;;;;;;;350043;28;996;-65
2022/07/27 00:47:26;;;;;;;;;;;;;;;;;;350034;28;971;-65
2022/07/27 00:47:36;;;;;;;;;;;;;;;;;;350058;28;842;-66
2022/07/27 00:47:46;;;;;;;;;;;;;;;;;;350084;28;853;-65
2022/07/27 00:47:56;;;;;;;;;;;;;;;;;;350078;28;972;-65
2022/07/27 00:48:07;;;;;;;;;;;;;;;;;;349995;28;1020;-65
2022/07/27 00:48:17;;;;;;;;;;;;;;;;;;350027;28;925;-65
2022/07/27 00:48:28;;;;;;;;;;;;;;;;;;350076;28;865;-65
2022/07/27 00:48:38;;;;;;;;;;;;;;;;;;350091;28;850;-65
2022/07/27 00:48:48;;;;;;;;;;;;;;;;;;350056;28;845;-65
2022/07/27 00:48:59;;;;;;;;;;;;;;;;;;350040;28;982;-65
2022/07/27 00:49:09;;;;;;;;;;;;;;;;;;349786;28;1312;-65
2022/07/27 00:49:19;;;;;;;;;;;;;;;;;;350279;28;1033;-65
2022/07/27 00:49:29;;;;;;;;;;;;;;;;;;350716;28;1250;-65
2022/07/27 00:49:39;;;;;;;;;;;;;;;;;;351446;28;838;-65
2022/07/27 00:49:50;;;;;;;;;;;;;;;;;;351474;28;829;-65
2022/07/27 00:50:00;;;;;;;;;;;;;;;;;;351385;28;1176;-65
2022/07/27 00:50:10;;;;;;;;;;;;;;;;;;351409;28;913;-65
2022/07/27 00:50:21;;;;;;;;;;;;;;;;;;351387;28;997;-65
2022/07/27 00:50:31;;;;;;;;;;;;;;;;;;351503;28;869;-65
2022/07/27 00:50:42;;;;;;;;;;;;;;;;;;351444;28;896;-65
2022/07/27 00:50:52;;;;;;;;;;;;;;;;;;351482;28;845;-65
2022/07/27 00:51:02;;;;;;;;;;;;;;;;;;351403;28;961;-65
2022/07/27 00:51:13;;;;;;;;;;;;;;;;;;351382;28;936;-65
2022/07/27 00:51:24;;;;;;;;;;;;;;;;;;351405;28;1000;-65
2022/07/27 00:51:34;;;;;;;;;;;;;;;;;;351429;28;987;-65
2022/07/27 00:51:44;;;;;;;;;;;;;;;;;;351426;28;802;-65
2022/07/27 00:51:54;;;;;;;;;;;;;;;;;;351484;28;928;-65
2022/07/27 00:52:06;;;;;;;;;;;;;;;;;;351349;28;1902;-65
2022/07/27 00:52:16;;;;;;;;;;;;;;;;;;351489;28;850;-65
2022/07/27 00:52:27;;;;;;;;;;;;;;;;;;351433;28;832;-65
2022/07/27 00:52:39;;;;;;;;;;;;;;;;;;351495;28;956;-65
2022/07/27 00:52:49;;;;;;;;;;;;;;;;;;351446;28;807;-65
2022/07/27 00:53:00;;;;;;;;;;;;;;;;;;351383;28;975;-65
2022/07/27 00:53:12;;;;;;;;;;;;;;;;;;351418;28;964;-65
2022/07/27 00:53:22;;;;;;;;;;;;;;;;;;351339;28;949;-65
2022/07/27 00:53:32;;;;;;;;;;;;;;;;;;351424;28;849;-65
2022/07/27 00:53:43;;;;;;;;;;;;;;;;;;351454;28;929;-65
2022/07/27 00:53:54;;;;;;;;;;;;;;;;;;351470;28;1071;-65
2022/07/27 00:54:04;;;;;;;;;;;;;;;;;;351444;28;818;-65
2022/07/27 00:54:15;;;;;;;;;;;;;;;;;;351435;28;908;-65
2022/07/27 00:54:25;;;;;;;;;;;;;;;;;;351416;28;796;-65
2022/07/27 00:54:35;;;;;;;;;;;;;;;;;;351404;28;971;-65
2022/07/27 00:54:46;;;;;;;;;;;;;;;;;;351464;28;928;-65
2022/07/27 00:54:58;;;;;;;;;;;;;;;;;;351469;28;1003;-65
2022/07/27 00:55:08;;;;;;;;;;;;;;;;;;351411;28;857;-65
2022/07/27 00:55:18;;;;;;;;;;;;;;;;;;351387;28;858;-65
2022/07/27 00:55:30;;;;;;;;;;;;;;;;;;350515;28;2070;-65
2022/07/27 00:55:40;;;;;;;;;;;;;;;;;;352795;28;948;-65
2022/07/27 00:55:51;;;;;;;;;;;;;;;;;;352866;28;964;-65
2022/07/27 00:56:01;;;;;;;;;;;;;;;;;;352840;28;979;-65
2022/07/27 00:56:11;;;;;;;;;;;;;;;;;;352801;28;957;-65
2022/07/27 00:56:22;;;;;;;;;;;;;;;;;;352830;28;956;-65
2022/07/27 00:56:32;;;;;;;;;;;;;;;;;;352872;28;998;-65
2022/07/27 00:56:42;;;;;;;;;;;;;;;;;;352838;27;971;-65
2022/07/27 00:56:53;;;;;;;;;;;;;;;;;;352816;28;999;-65
2022/07/27 00:57:04;;;;;;;;;;;;;;;;;;352877;28;845;-65
2022/07/27 00:57:15;;;;;;;;;;;;;;;;;;352822;28;892;-65
2022/07/27 00:57:26;;;;;;;;;;;;;;;;;;352792;28;975;-65
2022/07/27 00:57:36;;;;;;;;;;;;;;;;;;352819;28;986;-65
2022/07/27 00:57:47;;;;;;;;;;;;;;;;;;352856;28;1819;-65
2022/07/27 00:57:57;;;;;;;;;;;;;;;;;;352764;28;821;-65
2022/07/27 00:58:07;;;;;;;;;;;;;;;;;;352854;28;857;-65
2022/07/27 00:58:18;;;;;;;;;;;;;;;;;;352834;28;964;-64
2022/07/27 00:58:28;;;;;;;;;;;;;;;;;;352847;28;924;-65
2022/07/27 00:58:38;;;;;;;;;;;;;;;;;;352810;27;884;-65
2022/07/27 00:58:50;;;;;;;;;;;;;;;;;;352866;28;979;-65
2022/07/27 00:59:00;;;;;;;;;;;;;;;;;;352869;28;923;-65
2022/07/27 00:59:11;;;;;;;;;;;;;;;;;;352786;28;991;-65
2022/07/27 00:59:22;;;;;;;;;;;;;;;;;;352780;28;1035;-65
2022/07/27 00:59:32;;;;;;;;;;;;;;;;;;352796;28;880;-65
2022/07/27 00:59:43;;;;;;;;;;;;;;;;;;352862;28;891;-65
2022/07/27 00:59:53;;;;;;;;;;;;;;;;;;352832;28;936;-65
2022/07/27 01:00:03;;;;;;;;;;;;;;;;;;352816;28;906;-65
2022/07/27 01:00:14;;;;;;;;;;;;;;;;;;352813;28;983;-65
2022/07/27 01:00:24;;;;;;;;;;;;;;;;;;352755;28;1011;-65
2022/07/27 01:00:36;;;;;;;;;;;;;;;;;;352863;28;999;-65
2022/07/27 01:00:46;;;;;;;;;;;;;;;;;;352805;28;794;-65
2022/07/27 01:00:56;;;;;;;;;;;;;;;;;;352836;28;955;-66
2022/07/27 01:01:06;;;;;;;;;;;;;;;;;;352871;28;852;-65
2022/07/27 01:01:20;;;;;;;;;;;;;;;;;;352806;28;1010;-65
2022/07/27 01:01:30;;;;;;;;;;;;;;;;;;352863;28;858;-65
2022/07/27 01:01:41;;;;;;;;;;;;;;;;;;352733;28;924;-65
2022/07/27 01:01:51;;;;;;;;;;;;;;;;;;352883;28;786;-65
2022/07/27 01:02:01;;;;;;;;;;;;;;;;;;352786;28;1106;-65
2022/07/27 01:02:11;;;;;;;;;;;;;;;;;;352828;28;822;-65
2022/07/27 01:02:22;;;;;;;;;;;;;;;;;;352813;28;983;-65
2022/07/27 01:02:32;;;;;;;;;;;;;;;;;;352882;27;966;-65
2022/07/27 01:02:42;;;;;;;;;;;;;;;;;;352887;28;802;-65
2022/07/27 01:02:53;;;;;;;;;;;;;;;;;;352799;28;916;-65
2022/07/27 01:03:03;;;;;;;;;;;;;;;;;;352911;28;829;-65
2022/07/27 01:03:14;;;;;;;;;;;;;;;;;;352847;28;1260;-65
2022/07/27 01:03:24;;;;;;;;;;;;;;;;;;352821;28;903;-65
2022/07/27 01:03:34;;;;;;;;;;;;;;;;;;352834;28;785;-65
2022/07/27 01:03:45;;;;;;;;;;;;;;;;;;352747;28;1010;-65
2022/07/27 01:03:55;;;;;;;;;;;;;;;;;;351675;28;1346;-65
2022/07/27 01:04:06;;;;;;;;;;;;;;;;;;350117;28;1489;-65
2022/07/27 01:04:19;;;;;;;;;;;;;;;;;;349997;28;872;-65
2022/07/27 01:04:29;;;;;;;;;;;;;;;;;;350009;28;931;-65
2022/07/27 01:04:39;;;;;;;;;;;;;;;;;;350094;28;825;-65
2022/07/27 01:04:50;;;;;;;;;;;;;;;;;;349954;28;912;-65
2022/07/27 01:05:01;;;;;;;;;;;;;;;;;;350381;28;1302;-65
2022/07/27 01:05:11;;;;;;;;;;;;;;;;;;351437;28;786;-65
2022/07/27 01:05:21;;;;;;;;;;;;;;;;;;351415;28;924;-65
2022/07/27 01:05:34;;;;;;;;;;;;;;;;;;351359;28;857;-65
2022/07/27 01:05:45;;;;;;;;;;;;;;;;;;351394;28;916;-65
2022/07/27 01:05:56;;;;;;;;;;;;;;;;;;351403;28;974;-65
2022/07/27 01:06:06;;;;;;;;;;;;;;;;;;351339;28;915;-65
2022/07/27 01:06:16;;;;;;;;;;;;;;;;;;351253;28;1337;-65
2022/07/27 01:06:27;;;;;;;;;;;;;;;;;;351259;28;1557;-65
2022/07/27 01:06:37;;;;;;;;;;;;;;;;;;351449;28;920;-65
2022/07/27 01:06:47;;;;;;;;;;;;;;;;;;351343;28;1049;-65
2022/07/27 01:06:58;;;;;;;;;;;;;;;;;;351403;28;951;-65
2022/07/27 01:07:09;;;;;;;;;;;;;;;;;;351420;28;1004;-65
2022/07/27 01:07:20;;;;;;;;;;;;;;;;;;351416;28;948;-65
2022/07/27 01:07:31;;;;;;;;;;;;;;;;;;351445;28;896;-65
2022/07/27 01:07:41;;;;;;;;;;;;;;;;;;351442;28;979;-65
2022/07/27 01:07:51;;;;;;;;;;;;;;;;;;351412;28;841;-65
2022/07/27 01:08:02;;;;;;;;;;;;;;;;;;351459;28;911;-65
2022/07/27 01:08:14;;;;;;;;;;;;;;;;;;351432;28;960;-65
2022/07/27 01:08:24;;;;;;;;;;;;;;;;;;351384;28;936;-65
2022/07/27 01:08:35;;;;;;;;;;;;;;;;;;351430;28;923;-65
2022/07/27 01:08:45;;;;;;;;;;;;;;;;;;351472;28;892;-65
2022/07/27 01:09:55;;;;;;;;;;;;;;;;;;351395;28;995;-65
2022/07/27 01:09:55;;;;;;;;;;;;;;;;;;351226;28;1129;-66
2022/07/27 01:10:06;;;;;;;;;;;;;;;;;;351434;28;967;-65
2022/07/27 01:10:17;;;;;;;;;;;;;;;;;;351374;28;1003;-65
2022/07/27 01:10:27;;;;;;;;;;;;;;;;;;351463;28;851;-65
2022/07/27 01:10:38;;;;;;;;;;;;;;;;;;351368;28;940;-65
2022/07/27 01:10:49;;;;;;;;;;;;;;;;;;351446;28;1034;-65
2022/07/27 01:11:00;;;;;;;;;;;;;;;;;;351445;28;797;-65
2022/07/27 01:11:11;;;;;;;;;;;;;;;;;;351407;28;936;-65
2022/07/27 01:11:21;;;;;;;;;;;;;;;;;;351399;28;932;-65
2022/07/27 01:11:31;;;;;;;;;;;;;;;;;;351447;28;773;-65
2022/07/27 01:11:46;;;;;;;;;;;;;;;;;;351399;28;1015;-65
2022/07/27 01:11:57;;;;;;;;;;;;;;;;;;351149;28;1302;-66
2022/07/27 01:12:10;;;;;;;;;;;;;;;;;;351166;28;1965;-65
2022/07/27 01:12:21;;;;;;;;;;;;;;;;;;351377;28;988;-65
2022/07/27 01:12:31;;;;;;;;;;;;;;;;;;351306;28;849;-65
2022/07/27 01:12:43;;;;;;;;;;;;;;;;;;351306;28;920;-65
2022/07/27 01:12:53;;;;;;;;;;;;;;;;;;351293;28;781;-65
2022/07/27 01:13:04;;;;;;;;;;;;;;;;;;351320;28;1015;-65
2022/07/27 01:13:16;;;;;;;;;;;;;;;;;;351311;28;777;-65
2022/07/27 01:13:27;;;;;;;;;;;;;;;;;;352046;28;1389;-65
2022/07/27 01:13:37;;;;;;;;;;;;;;;;;;352671;28;920;-65
2022/07/27 01:13:47;;;;;;;;;;;;;;;;;;352703;28;932;-65
2022/07/27 01:13:58;;;;;;;;;;;;;;;;;;351381;28;803;-65
2022/07/27 01:14:08;;;;;;;;;;;;;;;;;;351379;28;893;-65
2022/07/27 01:14:19;;;;;;;;;;;;;;;;;;351393;28;991;-65
2022/07/27 01:14:30;;;;;;;;;;;;;;;;;;351366;28;972;-65
2022/07/27 01:14:40;;;;;;;;;;;;;;;;;;351422;28;975;-65
2022/07/27 01:14:50;;;;;;;;;;;;;;;;;;351412;28;821;-65
2022/07/27 01:15:01;;;;;;;;;;;;;;;;;;351399;28;920;-65
2022/07/27 01:15:11;;;;;;;;;;;;;;;;;;351433;28;897;-65
2022/07/27 01:15:21;;;;;;;;;;;;;;;;;;351444;28;908;-65
2022/07/27 01:15:32;;;;;;;;;;;;;;;;;;351401;28;908;-65
2022/07/27 01:15:42;;;;;;;;;;;;;;;;;;351444;28;968;-65
2022/07/27 01:15:52;;;;;;;;;;;;;;;;;;351421;28;979;-65
2022/07/27 01:16:04;;;;;;;;;;;;;;;;;;351422;28;802;-65
2022/07/27 01:16:14;;;;;;;;;;;;;;;;;;351377;28;983;-65
2022/07/27 01:16:25;;;;;;;;;;;;;;;;;;351438;28;912;-65
2022/07/27 01:16:36;;;;;;;;;;;;;;;;;;351357;28;980;-65